THA828 VTBS-VQPR
Flight info
| Callsign | THA828 |
|---|---|
| Flight time | 2h 26m |
| Altitude | 34000 |
| Route | TARED1J TARED G463 DAC W3 TEGAK/N0473F240 W3 SDP/N0503F350 R598 BOGOP BOGOP1B |
| Aircraft | B77W/H-SDE1E2E3FGHIJ2J3J4J5M1RWXY/LB1D1 |
Departure
| Time | 2026-05-01 10:20 |
|---|---|
| Airport | Suvarnabhumi Airport (VTBS) |
Arrival
| Time | 2026-05-01 12:47 |
|---|---|
| Airport | Paro International Airport (VQPR) |
| Time | Latitude | Longitude | Altitude | Speed | Heading |
|---|---|---|---|---|---|
| 2026-05-01 10:00 | 13.69092 | 100.75620 | 13 ft | 0 kts | 194° |
| 2026-05-01 10:14 | 13.69096 | 100.75621 | 13 ft | 2 kts | 194° |
| 2026-05-01 10:14 | 13.69110 | 100.75625 | 13 ft | 2 kts | 194° |
| 2026-05-01 10:14 | 13.69125 | 100.75629 | 13 ft | 2 kts | 194° |
| 2026-05-01 10:15 | 13.69138 | 100.75632 | 13 ft | 0 kts | 194° |
| 2026-05-01 10:15 | 13.69149 | 100.75635 | 13 ft | 2 kts | 186° |
| 2026-05-01 10:15 | 13.69164 | 100.75634 | 13 ft | 2 kts | 166° |
| 2026-05-01 10:15 | 13.69178 | 100.75629 | 13 ft | 2 kts | 151° |
| 2026-05-01 10:16 | 13.69187 | 100.75623 | 13 ft | 1 kts | 139° |
| 2026-05-01 10:16 | 13.69189 | 100.75621 | 13 ft | 0 kts | 139° |
| 2026-05-01 10:17 | 13.69160 | 100.75669 | 13 ft | 22 kts | 111° |
| 2026-05-01 10:17 | 13.69124 | 100.75811 | 13 ft | 13 kts | 103° |
| 2026-05-01 10:18 | 13.69082 | 100.75980 | 13 ft | 11 kts | 104° |
| 2026-05-01 10:18 | 13.69054 | 100.76047 | 13 ft | 9 kts | 138° |
| 2026-05-01 10:18 | 13.69012 | 100.76059 | 13 ft | 0 kts | 194° |
| 2026-05-01 10:20 | 13.68236 | 100.75854 | 14 ft | 144 kts | 194° |
| 2026-05-01 10:20 | 13.66991 | 100.75530 | 128 ft | 213 kts | 194° |
| 2026-05-01 10:20 | 13.65451 | 100.75127 | 714 ft | 227 kts | 194° |
| 2026-05-01 10:20 | 13.63839 | 100.74925 | 1578 ft | 230 kts | 177° |
| 2026-05-01 10:21 | 13.62242 | 100.75061 | 2183 ft | 237 kts | 174° |
| 2026-05-01 10:21 | 13.58811 | 100.75644 | 3228 ft | 261 kts | 162° |
| 2026-05-01 10:21 | 13.57063 | 100.76217 | 3978 ft | 263 kts | 163° |
| 2026-05-01 10:22 | 13.53469 | 100.77286 | 5465 ft | 270 kts | 165° |
| 2026-05-01 10:22 | 13.49789 | 100.78338 | 6908 ft | 276 kts | 165° |
| 2026-05-01 10:23 | 13.47983 | 100.78542 | 7529 ft | 279 kts | 186° |
| 2026-05-01 10:23 | 13.44326 | 100.77207 | 8888 ft | 284 kts | 221° |
| 2026-05-01 10:23 | 13.43133 | 100.75563 | 9481 ft | 290 kts | 246° |
| 2026-05-01 10:24 | 13.43119 | 100.71424 | 9985 ft | 297 kts | 286° |
| 2026-05-01 10:24 | 13.44372 | 100.67152 | 9996 ft | 337 kts | 284° |
| 2026-05-01 10:25 | 13.46580 | 100.62505 | 9985 ft | 383 kts | 306° |
| 2026-05-01 10:25 | 13.50611 | 100.58833 | 9976 ft | 388 kts | 329° |
| 2026-05-01 10:26 | 13.53105 | 100.57652 | 9966 ft | 389 kts | 340° |
| 2026-05-01 10:26 | 13.55795 | 100.56992 | 9955 ft | 391 kts | 352° |
| 2026-05-01 10:26 | 13.61383 | 100.57066 | 11118 ft | 400 kts | 3° |
| 2026-05-01 10:27 | 13.67120 | 100.57353 | 12773 ft | 404 kts | 2° |
| 2026-05-01 10:27 | 13.72979 | 100.57571 | 14289 ft | 416 kts | 1° |
| 2026-05-01 10:28 | 13.75916 | 100.57409 | 15139 ft | 419 kts | 351° |
| 2026-05-01 10:28 | 13.81778 | 100.55325 | 16809 ft | 428 kts | 329° |
| 2026-05-01 10:28 | 13.84386 | 100.53710 | 17609 ft | 432 kts | 327° |
| 2026-05-01 10:29 | 13.89539 | 100.50108 | 19180 ft | 440 kts | 317° |
| 2026-05-01 10:29 | 13.91658 | 100.47810 | 19905 ft | 443 kts | 307° |
| 2026-05-01 10:30 | 13.94634 | 100.42228 | 21329 ft | 449 kts | 288° |
| 2026-05-01 10:30 | 13.95875 | 100.35871 | 22679 ft | 456 kts | 278° |
| 2026-05-01 10:31 | 13.96787 | 100.29357 | 24091 ft | 461 kts | 278° |
| 2026-05-01 10:31 | 13.98574 | 100.22977 | 25469 ft | 466 kts | 295° |
| 2026-05-01 10:32 | 14.02293 | 100.16753 | 26832 ft | 474 kts | 303° |
| 2026-05-01 10:32 | 14.04117 | 100.13950 | 27446 ft | 477 kts | 303° |
| 2026-05-01 10:32 | 14.07834 | 100.08232 | 28769 ft | 480 kts | 302° |
| 2026-05-01 10:33 | 14.11559 | 100.02492 | 30164 ft | 482 kts | 302° |
| 2026-05-01 10:33 | 14.15264 | 99.96776 | 31721 ft | 478 kts | 301° |
| 2026-05-01 10:34 | 14.17126 | 99.93902 | 32485 ft | 476 kts | 301° |
| 2026-05-01 10:34 | 14.18946 | 99.91089 | 33240 ft | 474 kts | 301° |
| 2026-05-01 10:34 | 14.20794 | 99.88232 | 33763 ft | 477 kts | 301° |
| 2026-05-01 10:35 | 14.26272 | 99.79760 | 33803 ft | 472 kts | 301° |
| 2026-05-01 10:35 | 14.29920 | 99.74111 | 33808 ft | 472 kts | 301° |
| 2026-05-01 10:36 | 14.35358 | 99.65685 | 33817 ft | 471 kts | 301° |
| 2026-05-01 10:37 | 14.38991 | 99.60050 | 33831 ft | 473 kts | 301° |
| 2026-05-01 10:37 | 14.44338 | 99.51542 | 33833 ft | 470 kts | 296° |
| 2026-05-01 10:38 | 14.47369 | 99.45576 | 33854 ft | 470 kts | 295° |
| 2026-05-01 10:38 | 14.50387 | 99.39586 | 33890 ft | 470 kts | 295° |
| 2026-05-01 10:39 | 14.53411 | 99.33585 | 33929 ft | 470 kts | 295° |
| 2026-05-01 10:39 | 14.56409 | 99.27634 | 33952 ft | 469 kts | 295° |
| 2026-05-01 10:40 | 14.59424 | 99.21645 | 33960 ft | 470 kts | 295° |
| 2026-05-01 10:40 | 14.62423 | 99.15685 | 33938 ft | 469 kts | 295° |
| 2026-05-01 10:41 | 14.65451 | 99.09662 | 33931 ft | 469 kts | 295° |
| 2026-05-01 10:42 | 14.69932 | 99.00742 | 33898 ft | 469 kts | 295° |
| 2026-05-01 10:42 | 14.72930 | 98.94767 | 33900 ft | 469 kts | 295° |
| 2026-05-01 10:43 | 14.75951 | 98.88742 | 33913 ft | 469 kts | 295° |
| 2026-05-01 10:43 | 14.78937 | 98.82781 | 33934 ft | 470 kts | 295° |
| 2026-05-01 10:44 | 14.81934 | 98.76797 | 33948 ft | 469 kts | 295° |
| 2026-05-01 10:44 | 14.84941 | 98.70786 | 33954 ft | 469 kts | 295° |
| 2026-05-01 10:45 | 14.88005 | 98.64655 | 33942 ft | 467 kts | 295° |
| 2026-05-01 10:45 | 14.91003 | 98.58652 | 33927 ft | 469 kts | 295° |
| 2026-05-01 10:46 | 14.94056 | 98.52535 | 33910 ft | 468 kts | 295° |
| 2026-05-01 10:46 | 14.97066 | 98.46497 | 33893 ft | 469 kts | 295° |
| 2026-05-01 10:47 | 15.00052 | 98.40507 | 33898 ft | 467 kts | 295° |
| 2026-05-01 10:47 | 15.03105 | 98.34373 | 33914 ft | 468 kts | 294° |
| 2026-05-01 10:48 | 15.06080 | 98.28392 | 33929 ft | 468 kts | 294° |
| 2026-05-01 10:48 | 15.09298 | 98.22482 | 33934 ft | 471 kts | 303° |
| 2026-05-01 10:49 | 15.13998 | 98.17478 | 33915 ft | 476 kts | 318° |
| 2026-05-01 10:49 | 15.19332 | 98.13186 | 33902 ft | 480 kts | 318° |
| 2026-05-01 10:50 | 15.24647 | 98.08923 | 33898 ft | 480 kts | 318° |
| 2026-05-01 10:50 | 15.29971 | 98.04642 | 33885 ft | 480 kts | 318° |
| 2026-05-01 10:51 | 15.35238 | 98.00401 | 33875 ft | 479 kts | 318° |
| 2026-05-01 10:51 | 15.40558 | 97.96113 | 33863 ft | 480 kts | 318° |
| 2026-05-01 10:52 | 15.45866 | 97.91830 | 33854 ft | 478 kts | 318° |
| 2026-05-01 10:52 | 15.51160 | 97.87556 | 33851 ft | 478 kts | 318° |
| 2026-05-01 10:53 | 15.56447 | 97.83283 | 33854 ft | 480 kts | 317° |
| 2026-05-01 10:53 | 15.61730 | 97.79012 | 33848 ft | 479 kts | 317° |
| 2026-05-01 10:54 | 15.67041 | 97.74715 | 33841 ft | 479 kts | 317° |
| 2026-05-01 10:54 | 15.72297 | 97.70458 | 33840 ft | 479 kts | 317° |
| 2026-05-01 10:55 | 15.77585 | 97.66174 | 33838 ft | 478 kts | 317° |
| 2026-05-01 10:55 | 15.82842 | 97.61910 | 33839 ft | 479 kts | 317° |
| 2026-05-01 10:56 | 15.88146 | 97.57608 | 33836 ft | 477 kts | 317° |
| 2026-05-01 10:56 | 15.93491 | 97.53314 | 33833 ft | 480 kts | 320° |
| 2026-05-01 10:57 | 15.98980 | 97.49352 | 33837 ft | 481 kts | 320° |
| 2026-05-01 10:57 | 16.04510 | 97.45362 | 33839 ft | 482 kts | 320° |
| 2026-05-01 10:58 | 16.10082 | 97.41325 | 33835 ft | 482 kts | 320° |
| 2026-05-01 10:58 | 16.15629 | 97.37295 | 33829 ft | 480 kts | 320° |
| 2026-05-01 10:59 | 16.21163 | 97.33266 | 33838 ft | 478 kts | 320° |
| 2026-05-01 10:59 | 16.26635 | 97.29278 | 33838 ft | 479 kts | 320° |
| 2026-05-01 11:00 | 16.32129 | 97.25268 | 33835 ft | 480 kts | 320° |
| 2026-05-01 11:00 | 16.37618 | 97.21260 | 33838 ft | 479 kts | 320° |
| 2026-05-01 11:01 | 16.43094 | 97.17258 | 33837 ft | 478 kts | 320° |
| 2026-05-01 11:01 | 16.48577 | 97.13248 | 33838 ft | 479 kts | 320° |
| 2026-05-01 11:02 | 16.54070 | 97.09228 | 33834 ft | 479 kts | 320° |
| 2026-05-01 11:02 | 16.59521 | 97.05235 | 33832 ft | 478 kts | 320° |
| 2026-05-01 11:03 | 16.65012 | 97.01211 | 33827 ft | 477 kts | 320° |
| 2026-05-01 11:03 | 16.70478 | 96.97201 | 33826 ft | 478 kts | 320° |
| 2026-05-01 11:04 | 16.75966 | 96.93174 | 33827 ft | 475 kts | 320° |
| 2026-05-01 11:04 | 16.81456 | 96.89140 | 33830 ft | 478 kts | 320° |
| 2026-05-01 11:05 | 16.87749 | 96.84515 | 33827 ft | 475 kts | 320° |
| 2026-05-01 11:05 | 16.93386 | 96.80368 | 33827 ft | 477 kts | 320° |
| 2026-05-01 11:06 | 16.98824 | 96.76363 | 33828 ft | 478 kts | 320° |
| 2026-05-01 11:06 | 17.04278 | 96.72347 | 33823 ft | 477 kts | 320° |
| 2026-05-01 11:07 | 17.12497 | 96.66285 | 33817 ft | 477 kts | 320° |
| 2026-05-01 11:07 | 17.18014 | 96.62210 | 33815 ft | 490 kts | 320° |
| 2026-05-01 11:08 | 17.23727 | 96.57987 | 33821 ft | 507 kts | 321° |
| 2026-05-01 11:09 | 17.32308 | 96.51517 | 33814 ft | 503 kts | 316° |
| 2026-05-01 11:09 | 17.37524 | 96.46667 | 33817 ft | 503 kts | 314° |
| 2026-05-01 11:10 | 17.45340 | 96.39309 | 33813 ft | 504 kts | 314° |
| 2026-05-01 11:10 | 17.50557 | 96.34395 | 33815 ft | 504 kts | 314° |
| 2026-05-01 11:11 | 17.55792 | 96.29461 | 33819 ft | 504 kts | 314° |
| 2026-05-01 11:11 | 17.61056 | 96.24496 | 33818 ft | 506 kts | 314° |
| 2026-05-01 11:12 | 17.66450 | 96.19404 | 33818 ft | 505 kts | 314° |
| 2026-05-01 11:12 | 17.71673 | 96.14470 | 33826 ft | 506 kts | 314° |
| 2026-05-01 11:13 | 17.76935 | 96.09495 | 33827 ft | 506 kts | 314° |
| 2026-05-01 11:13 | 17.82231 | 96.04485 | 33833 ft | 506 kts | 314° |
| 2026-05-01 11:14 | 17.87461 | 95.99532 | 33832 ft | 505 kts | 315° |
| 2026-05-01 11:14 | 17.92836 | 95.94437 | 33828 ft | 506 kts | 315° |
| 2026-05-01 11:15 | 17.98085 | 95.89459 | 33826 ft | 505 kts | 315° |
| 2026-05-01 11:15 | 18.03298 | 95.84509 | 33816 ft | 505 kts | 315° |
| 2026-05-01 11:16 | 18.08989 | 95.79102 | 33813 ft | 505 kts | 315° |
| 2026-05-01 11:16 | 18.14285 | 95.74066 | 33806 ft | 505 kts | 315° |
| 2026-05-01 11:17 | 18.19487 | 95.69113 | 33805 ft | 507 kts | 315° |
| 2026-05-01 11:17 | 18.24736 | 95.64114 | 33802 ft | 505 kts | 315° |
| 2026-05-01 11:18 | 18.29990 | 95.59104 | 33802 ft | 507 kts | 315° |
| 2026-05-01 11:18 | 18.35211 | 95.54122 | 33799 ft | 507 kts | 315° |
| 2026-05-01 11:19 | 18.40426 | 95.49142 | 33796 ft | 506 kts | 315° |
| 2026-05-01 11:19 | 18.45663 | 95.44136 | 33799 ft | 507 kts | 315° |
| 2026-05-01 11:20 | 18.50987 | 95.39251 | 33793 ft | 506 kts | 316° |
| 2026-05-01 11:20 | 18.56335 | 95.34368 | 33802 ft | 507 kts | 316° |
| 2026-05-01 11:21 | 18.61711 | 95.29449 | 33799 ft | 507 kts | 316° |
| 2026-05-01 11:21 | 18.67131 | 95.24482 | 33797 ft | 508 kts | 316° |
| 2026-05-01 11:22 | 18.72470 | 95.19582 | 33797 ft | 506 kts | 316° |
| 2026-05-01 11:22 | 18.77798 | 95.14687 | 33798 ft | 507 kts | 316° |
| 2026-05-01 11:23 | 18.83168 | 95.09747 | 33791 ft | 507 kts | 316° |
| 2026-05-01 11:23 | 18.88520 | 95.04820 | 33791 ft | 508 kts | 316° |
| 2026-05-01 11:24 | 18.93861 | 94.99899 | 33794 ft | 508 kts | 316° |
| 2026-05-01 11:25 | 19.01879 | 94.92503 | 33829 ft | 507 kts | 315° |
| 2026-05-01 11:25 | 19.09867 | 94.85124 | 33832 ft | 505 kts | 315° |
| 2026-05-01 11:26 | 19.17906 | 94.77689 | 33819 ft | 504 kts | 315° |
| 2026-05-01 11:27 | 19.23254 | 94.72736 | 33802 ft | 505 kts | 315° |
| 2026-05-01 11:27 | 19.28550 | 94.67775 | 33809 ft | 503 kts | 315° |
| 2026-05-01 11:28 | 19.33742 | 94.62788 | 33836 ft | 503 kts | 314° |
| 2026-05-01 11:28 | 19.38942 | 94.57794 | 33858 ft | 503 kts | 314° |
| 2026-05-01 11:29 | 19.46755 | 94.50288 | 33888 ft | 501 kts | 314° |
| 2026-05-01 11:30 | 19.54550 | 94.42794 | 33884 ft | 500 kts | 314° |
| 2026-05-01 11:30 | 19.59779 | 94.37762 | 33867 ft | 501 kts | 314° |
| 2026-05-01 11:31 | 19.64974 | 94.32758 | 33866 ft | 500 kts | 314° |
| 2026-05-01 11:31 | 19.70152 | 94.27766 | 33853 ft | 501 kts | 314° |
| 2026-05-01 11:32 | 19.75305 | 94.22794 | 33855 ft | 500 kts | 314° |
| 2026-05-01 11:32 | 19.80460 | 94.17816 | 33855 ft | 500 kts | 314° |
| 2026-05-01 11:33 | 19.85629 | 94.12820 | 33850 ft | 499 kts | 313° |
| 2026-05-01 11:33 | 19.90766 | 94.07850 | 33852 ft | 497 kts | 314° |
| 2026-05-01 11:34 | 19.95880 | 94.02898 | 33858 ft | 498 kts | 314° |
| 2026-05-01 11:34 | 20.01110 | 93.97826 | 33851 ft | 498 kts | 313° |
| 2026-05-01 11:35 | 20.06275 | 93.92816 | 33856 ft | 498 kts | 313° |
| 2026-05-01 11:35 | 20.11398 | 93.87841 | 33860 ft | 497 kts | 313° |
| 2026-05-01 11:36 | 20.16540 | 93.82843 | 33858 ft | 496 kts | 313° |
| 2026-05-01 11:36 | 20.21685 | 93.77837 | 33868 ft | 498 kts | 313° |
| 2026-05-01 11:37 | 20.26882 | 93.72776 | 33868 ft | 495 kts | 313° |
| 2026-05-01 11:37 | 20.31974 | 93.67814 | 33875 ft | 494 kts | 313° |
| 2026-05-01 11:38 | 20.37078 | 93.62833 | 33873 ft | 494 kts | 313° |
| 2026-05-01 11:38 | 20.42125 | 93.57905 | 33872 ft | 492 kts | 313° |
| 2026-05-01 11:39 | 20.47181 | 93.52962 | 33856 ft | 492 kts | 313° |
| 2026-05-01 11:39 | 20.52214 | 93.48038 | 33850 ft | 492 kts | 313° |
| 2026-05-01 11:40 | 20.57256 | 93.43099 | 33843 ft | 491 kts | 313° |
| 2026-05-01 11:40 | 20.62287 | 93.38168 | 33835 ft | 491 kts | 313° |
| 2026-05-01 11:41 | 20.67335 | 93.33215 | 33839 ft | 489 kts | 312° |
| 2026-05-01 11:41 | 20.72315 | 93.28326 | 33830 ft | 488 kts | 313° |
| 2026-05-01 11:42 | 20.77341 | 93.23385 | 33824 ft | 488 kts | 312° |
| 2026-05-01 11:42 | 20.82324 | 93.18481 | 33836 ft | 488 kts | 312° |
| 2026-05-01 11:43 | 20.87318 | 93.13563 | 33843 ft | 488 kts | 312° |
| 2026-05-01 11:43 | 20.92287 | 93.08665 | 33842 ft | 486 kts | 312° |
| 2026-05-01 11:44 | 20.99810 | 93.01239 | 33829 ft | 488 kts | 312° |
| 2026-05-01 11:44 | 21.04791 | 92.96317 | 33828 ft | 489 kts | 312° |
| 2026-05-01 11:45 | 21.09814 | 92.91349 | 33831 ft | 487 kts | 312° |
| 2026-05-01 11:45 | 21.14835 | 92.86378 | 33839 ft | 489 kts | 312° |
| 2026-05-01 11:46 | 21.19816 | 92.81443 | 33836 ft | 485 kts | 311° |
| 2026-05-01 11:46 | 21.24836 | 92.76463 | 33834 ft | 485 kts | 312° |
| 2026-05-01 11:47 | 21.29803 | 92.71530 | 33835 ft | 485 kts | 312° |
| 2026-05-01 11:47 | 21.34745 | 92.66620 | 33830 ft | 485 kts | 312° |
| 2026-05-01 11:48 | 21.39697 | 92.61693 | 33836 ft | 485 kts | 311° |
| 2026-05-01 11:48 | 21.44651 | 92.56759 | 33832 ft | 486 kts | 312° |
| 2026-05-01 11:49 | 21.49615 | 92.51811 | 33824 ft | 485 kts | 311° |
| 2026-05-01 11:49 | 21.54553 | 92.46886 | 33827 ft | 482 kts | 312° |
| 2026-05-01 11:50 | 21.59376 | 92.42067 | 33832 ft | 487 kts | 312° |
| 2026-05-01 11:50 | 21.64319 | 92.37127 | 33816 ft | 480 kts | 311° |
| 2026-05-01 11:51 | 21.69308 | 92.32313 | 33833 ft | 489 kts | 315° |
| 2026-05-01 11:51 | 21.74732 | 92.27691 | 33818 ft | 491 kts | 316° |
| 2026-05-01 11:52 | 21.80082 | 92.23109 | 33814 ft | 494 kts | 316° |
| 2026-05-01 11:52 | 21.85501 | 92.18442 | 33807 ft | 493 kts | 315° |
| 2026-05-01 11:53 | 21.97436 | 92.11008 | 33805 ft | 512 kts | 338° |
| 2026-05-01 11:54 | 22.03938 | 92.08086 | 33799 ft | 502 kts | 323° |
| 2026-05-01 11:54 | 22.06817 | 92.05953 | 33795 ft | 491 kts | 315° |
| 2026-05-01 11:54 | 22.09424 | 92.03574 | 33794 ft | 489 kts | 313° |
| 2026-05-01 11:55 | 22.14602 | 91.98718 | 33788 ft | 484 kts | 313° |
| 2026-05-01 11:55 | 22.19705 | 91.93919 | 33794 ft | 488 kts | 313° |
| 2026-05-01 11:56 | 22.24828 | 91.89100 | 33793 ft | 486 kts | 313° |
| 2026-05-01 11:56 | 22.30007 | 91.84221 | 33798 ft | 486 kts | 313° |
| 2026-05-01 11:57 | 22.35111 | 91.79410 | 33792 ft | 486 kts | 313° |
| 2026-05-01 11:57 | 22.40210 | 91.74597 | 33793 ft | 484 kts | 313° |
| 2026-05-01 11:58 | 22.45282 | 91.69806 | 33781 ft | 485 kts | 313° |
| 2026-05-01 11:59 | 22.52888 | 91.62611 | 33789 ft | 484 kts | 313° |
| 2026-05-01 11:59 | 22.57964 | 91.57802 | 33780 ft | 486 kts | 313° |
| 2026-05-01 12:00 | 22.65603 | 91.50558 | 33777 ft | 483 kts | 313° |
| 2026-05-01 12:01 | 22.73203 | 91.43339 | 33771 ft | 488 kts | 313° |
| 2026-05-01 12:01 | 22.78325 | 91.38467 | 33763 ft | 488 kts | 313° |
| 2026-05-01 12:02 | 22.83412 | 91.33625 | 33767 ft | 486 kts | 313° |
| 2026-05-01 12:02 | 22.88497 | 91.28780 | 33763 ft | 485 kts | 313° |
| 2026-05-01 12:03 | 22.93567 | 91.23942 | 33767 ft | 487 kts | 313° |
| 2026-05-01 12:03 | 22.98717 | 91.19022 | 33779 ft | 489 kts | 313° |
| 2026-05-01 12:04 | 23.03843 | 91.14122 | 33774 ft | 490 kts | 313° |
| 2026-05-01 12:04 | 23.08952 | 91.09232 | 33780 ft | 489 kts | 313° |
| 2026-05-01 12:05 | 23.14154 | 91.04248 | 33762 ft | 489 kts | 314° |
| 2026-05-01 12:05 | 23.21806 | 90.96908 | 33755 ft | 488 kts | 313° |
| 2026-05-01 12:06 | 23.26912 | 90.92003 | 33764 ft | 488 kts | 314° |
| 2026-05-01 12:06 | 23.31985 | 90.87125 | 33760 ft | 488 kts | 314° |
| 2026-05-01 12:07 | 23.37053 | 90.82247 | 33760 ft | 486 kts | 314° |
| 2026-05-01 12:07 | 23.42117 | 90.77367 | 33742 ft | 487 kts | 314° |
| 2026-05-01 12:08 | 23.47199 | 90.72465 | 33742 ft | 485 kts | 314° |
| 2026-05-01 12:08 | 23.52234 | 90.67602 | 33727 ft | 485 kts | 314° |
| 2026-05-01 12:09 | 23.57309 | 90.62696 | 33732 ft | 484 kts | 314° |
| 2026-05-01 12:09 | 23.62400 | 90.57770 | 33731 ft | 482 kts | 314° |
| 2026-05-01 12:10 | 23.69963 | 90.50441 | 33730 ft | 481 kts | 315° |
| 2026-05-01 12:11 | 23.77461 | 90.43163 | 33733 ft | 481 kts | 315° |
| 2026-05-01 12:11 | 23.82322 | 90.38439 | 33740 ft | 481 kts | 315° |
| 2026-05-01 12:12 | 23.87376 | 90.33521 | 33748 ft | 482 kts | 315° |
| 2026-05-01 12:12 | 23.92395 | 90.28632 | 33741 ft | 479 kts | 315° |
| 2026-05-01 12:13 | 23.97428 | 90.23726 | 33738 ft | 479 kts | 315° |
| 2026-05-01 12:13 | 24.02391 | 90.18881 | 33736 ft | 479 kts | 315° |
| 2026-05-01 12:14 | 24.07392 | 90.13994 | 33729 ft | 479 kts | 315° |
| 2026-05-01 12:14 | 24.12395 | 90.09100 | 33741 ft | 480 kts | 315° |
| 2026-05-01 12:15 | 24.17435 | 90.04163 | 33730 ft | 480 kts | 315° |
| 2026-05-01 12:15 | 24.22410 | 89.99286 | 33733 ft | 479 kts | 315° |
| 2026-05-01 12:16 | 24.27428 | 89.94361 | 33741 ft | 478 kts | 315° |
| 2026-05-01 12:16 | 24.32378 | 89.89497 | 33742 ft | 478 kts | 315° |
| 2026-05-01 12:17 | 24.37348 | 89.84609 | 33737 ft | 479 kts | 315° |
| 2026-05-01 12:17 | 24.42337 | 89.79695 | 33732 ft | 478 kts | 315° |
| 2026-05-01 12:18 | 24.47343 | 89.74760 | 33734 ft | 479 kts | 315° |
| 2026-05-01 12:18 | 24.52384 | 89.69785 | 33727 ft | 479 kts | 315° |
| 2026-05-01 12:19 | 24.57402 | 89.64841 | 33716 ft | 479 kts | 317° |
| 2026-05-01 12:19 | 24.63132 | 89.60788 | 33717 ft | 487 kts | 332° |
| 2026-05-01 12:20 | 24.69673 | 89.58535 | 33714 ft | 497 kts | 346° |
| 2026-05-01 12:20 | 24.76697 | 89.58258 | 33729 ft | 508 kts | 359° |
| 2026-05-01 12:21 | 24.83754 | 89.58828 | 33730 ft | 506 kts | 359° |
| 2026-05-01 12:21 | 24.90792 | 89.59408 | 33730 ft | 508 kts | 359° |
| 2026-05-01 12:22 | 24.97934 | 89.59998 | 33734 ft | 509 kts | 359° |
| 2026-05-01 12:22 | 25.05060 | 89.60586 | 33735 ft | 511 kts | 359° |
| 2026-05-01 12:23 | 25.12255 | 89.61181 | 33745 ft | 513 kts | 360° |
| 2026-05-01 12:23 | 25.19512 | 89.61781 | 33736 ft | 516 kts | 360° |
| 2026-05-01 12:24 | 25.26696 | 89.62378 | 33742 ft | 515 kts | 360° |
| 2026-05-01 12:24 | 25.33934 | 89.62979 | 33739 ft | 514 kts | 360° |
| 2026-05-01 12:25 | 25.44743 | 89.63878 | 33743 ft | 514 kts | 0° |
| 2026-05-01 12:26 | 25.51984 | 89.64481 | 33743 ft | 515 kts | 360° |
| 2026-05-01 12:26 | 25.62863 | 89.65389 | 33742 ft | 516 kts | 360° |
| 2026-05-01 12:27 | 25.73684 | 89.66294 | 33748 ft | 516 kts | 0° |
| 2026-05-01 12:28 | 25.84500 | 89.67200 | 33745 ft | 514 kts | 0° |
| 2026-05-01 12:29 | 25.95352 | 89.68111 | 33738 ft | 515 kts | 0° |
| 2026-05-01 12:29 | 26.06630 | 89.69058 | 33741 ft | 516 kts | 0° |
| 2026-05-01 12:30 | 26.17869 | 89.70005 | 33766 ft | 516 kts | 0° |
| 2026-05-01 12:31 | 26.25141 | 89.70618 | 33769 ft | 517 kts | 0° |
| 2026-05-01 12:31 | 26.32374 | 89.71230 | 33779 ft | 515 kts | 0° |
| 2026-05-01 12:32 | 26.39537 | 89.71835 | 33797 ft | 516 kts | 1° |
| 2026-05-01 12:32 | 26.50387 | 89.72755 | 33810 ft | 517 kts | 1° |
| 2026-05-01 12:33 | 26.57627 | 89.73370 | 33814 ft | 516 kts | 1° |
| 2026-05-01 12:33 | 26.65183 | 89.74011 | 33842 ft | 516 kts | 1° |
| 2026-05-01 12:34 | 26.72632 | 89.74745 | 33862 ft | 519 kts | 6° |
| 2026-05-01 12:34 | 26.79911 | 89.76894 | 33848 ft | 513 kts | 11° |
| 2026-05-01 12:35 | 26.83409 | 89.77730 | 33104 ft | 497 kts | 5° |
| 2026-05-01 12:35 | 26.86850 | 89.78058 | 31731 ft | 496 kts | 358° |
| 2026-05-01 12:35 | 26.90522 | 89.77840 | 30169 ft | 496 kts | 350° |
| 2026-05-01 12:35 | 26.93969 | 89.77047 | 29115 ft | 486 kts | 342° |
| 2026-05-01 12:36 | 26.97131 | 89.75790 | 28264 ft | 474 kts | 335° |
| 2026-05-01 12:36 | 27.00144 | 89.74071 | 27279 ft | 465 kts | 327° |
| 2026-05-01 12:36 | 27.02667 | 89.72153 | 26346 ft | 457 kts | 321° |
| 2026-05-01 12:36 | 27.05061 | 89.69810 | 25344 ft | 449 kts | 314° |
| 2026-05-01 12:37 | 27.07116 | 89.67221 | 24441 ft | 440 kts | 306° |
| 2026-05-01 12:37 | 27.08888 | 89.64488 | 23630 ft | 430 kts | 305° |
| 2026-05-01 12:37 | 27.10611 | 89.61761 | 22747 ft | 424 kts | 305° |
| 2026-05-01 12:37 | 27.12239 | 89.59177 | 21867 ft | 420 kts | 305° |
| 2026-05-01 12:38 | 27.13920 | 89.56507 | 20937 ft | 415 kts | 305° |
| 2026-05-01 12:38 | 27.15596 | 89.53845 | 20056 ft | 409 kts | 305° |
| 2026-05-01 12:38 | 27.17223 | 89.51259 | 19208 ft | 404 kts | 305° |
| 2026-05-01 12:38 | 27.18838 | 89.48689 | 18327 ft | 399 kts | 305° |
| 2026-05-01 12:39 | 27.20415 | 89.46178 | 17434 ft | 395 kts | 305° |
| 2026-05-01 12:39 | 27.21908 | 89.43632 | 16576 ft | 390 kts | 298° |
| 2026-05-01 12:39 | 27.22963 | 89.40846 | 16024 ft | 379 kts | 288° |
| 2026-05-01 12:39 | 27.23737 | 89.38074 | 15843 ft | 368 kts | 287° |
| 2026-05-01 12:40 | 27.24506 | 89.35390 | 15702 ft | 356 kts | 290° |
| 2026-05-01 12:40 | 27.25637 | 89.32925 | 15605 ft | 345 kts | 307° |
| 2026-05-01 12:40 | 27.27405 | 89.31165 | 15467 ft | 334 kts | 330° |
| 2026-05-01 12:40 | 27.29550 | 89.30281 | 15266 ft | 323 kts | 351° |
| 2026-05-01 12:41 | 27.31774 | 89.30180 | 15214 ft | 309 kts | 5° |
| 2026-05-01 12:41 | 27.33938 | 89.30473 | 15072 ft | 301 kts | 359° |
| 2026-05-01 12:41 | 27.35927 | 89.30084 | 14945 ft | 287 kts | 335° |
| 2026-05-01 12:41 | 27.37628 | 89.28960 | 14836 ft | 275 kts | 323° |
| 2026-05-01 12:42 | 27.39176 | 89.27718 | 14729 ft | 265 kts | 323° |
| 2026-05-01 12:42 | 27.40708 | 89.26544 | 14655 ft | 254 kts | 327° |
| 2026-05-01 12:42 | 27.42299 | 89.25750 | 14548 ft | 244 kts | 346° |
| 2026-05-01 12:42 | 27.43934 | 89.25661 | 14414 ft | 226 kts | 8° |
| 2026-05-01 12:43 | 27.45393 | 89.26167 | 14330 ft | 204 kts | 27° |
| 2026-05-01 12:43 | 27.46546 | 89.27037 | 14245 ft | 194 kts | 43° |
| 2026-05-01 12:43 | 27.47420 | 89.28153 | 14143 ft | 190 kts | 57° |
| 2026-05-01 12:43 | 27.48034 | 89.29519 | 13583 ft | 195 kts | 74° |
| 2026-05-01 12:44 | 27.48273 | 89.30968 | 12993 ft | 185 kts | 90° |
| 2026-05-01 12:44 | 27.48139 | 89.32414 | 12257 ft | 185 kts | 106° |
| 2026-05-01 12:44 | 27.47002 | 89.34888 | 11113 ft | 172 kts | 130° |
| 2026-05-01 12:45 | 27.45429 | 89.36871 | 10001 ft | 179 kts | 128° |
| 2026-05-01 12:45 | 27.44709 | 89.38045 | 8981 ft | 195 kts | 115° |
| 2026-05-01 12:45 | 27.44426 | 89.39489 | 8282 ft | 186 kts | 110° |
| 2026-05-01 12:46 | 27.43643 | 89.40523 | 8113 ft | 179 kts | 148° |
| 2026-05-01 12:46 | 27.42634 | 89.41417 | 7938 ft | 179 kts | 147° |
| 2026-05-01 12:46 | 27.41491 | 89.41785 | 7595 ft | 161 kts | 159° |
| 2026-05-01 12:46 | 27.40542 | 89.42339 | 7474 ft | 138 kts | 151° |
| 2026-05-01 12:47 | 27.39865 | 89.42770 | 7444 ft | 59 kts | 151° |
| 2026-05-01 12:47 | 27.39581 | 89.42949 | 7435 ft | 7 kts | 152° |
| 2026-05-01 12:47 | 27.39538 | 89.42974 | 7434 ft | 7 kts | 152° |
| 2026-05-01 12:47 | 27.39480 | 89.43009 | 7434 ft | 10 kts | 153° |
| 2026-05-01 12:48 | 27.39427 | 89.42985 | 7433 ft | 10 kts | 250° |
| 2026-05-01 12:48 | 27.39489 | 89.42897 | 7435 ft | 20 kts | 328° |
| 2026-05-01 12:48 | 27.39599 | 89.42824 | 7437 ft | 16 kts | 331° |
| 2026-05-01 12:48 | 27.39690 | 89.42770 | 7441 ft | 13 kts | 333° |
| 2026-05-01 12:49 | 27.39767 | 89.42724 | 7443 ft | 12 kts | 328° |
| 2026-05-01 12:49 | 27.39863 | 89.42661 | 7446 ft | 19 kts | 329° |
| 2026-05-01 12:49 | 27.40001 | 89.42572 | 7450 ft | 26 kts | 330° |
| 2026-05-01 12:49 | 27.40176 | 89.42459 | 7457 ft | 31 kts | 329° |
| 2026-05-01 12:50 | 27.40378 | 89.42328 | 7468 ft | 35 kts | 332° |
| 2026-05-01 12:50 | 27.40537 | 89.42229 | 7475 ft | 11 kts | 318° |
| 2026-05-01 12:50 | 27.40548 | 89.42194 | 7476 ft | 4 kts | 262° |
| 2026-05-01 12:50 | 27.40541 | 89.42176 | 7476 ft | 0 kts | 240° |